createdAt,value
2023-06-19T00:00:31.289Z,23.29
2023-06-19T00:01:31.315Z,23.31
2023-06-19T00:02:31.284Z,23.34
2023-06-19T00:03:31.309Z,23.35
2023-06-19T00:04:31.250Z,23.37
2023-06-19T00:05:31.225Z,23.39
2023-06-19T00:06:31.216Z,23.39
2023-06-19T00:07:31.203Z,23.39
2023-06-19T00:08:31.187Z,23.39
2023-06-19T00:09:31.181Z,23.39
2023-06-19T00:10:31.171Z,23.39
2023-06-19T00:11:31.181Z,23.41
2023-06-19T00:12:31.145Z,23.41
2023-06-19T00:13:31.131Z,23.44
2023-06-19T00:14:31.122Z,23.44
2023-06-19T00:15:31.129Z,23.44
2023-06-19T00:16:31.127Z,23.44
2023-06-19T00:17:31.113Z,23.42
2023-06-19T00:18:31.083Z,23.44
2023-06-19T00:19:31.073Z,23.45
2023-06-19T00:20:31.068Z,23.47
2023-06-19T00:21:31.059Z,23.47
2023-06-19T00:22:31.033Z,23.47
2023-06-19T00:23:31.028Z,23.49
2023-06-19T00:24:31.081Z,23.50
2023-06-19T00:25:31.023Z,23.49
2023-06-19T00:26:30.998Z,23.45
2023-06-19T00:27:30.989Z,23.44
2023-06-19T00:28:30.970Z,23.44
2023-06-19T00:29:30.976Z,23.41
2023-06-19T00:30:30.956Z,23.38
2023-06-19T00:31:30.942Z,23.37
2023-06-19T00:32:30.947Z,23.35
2023-06-19T00:33:30.929Z,23.32
2023-06-19T00:34:30.933Z,23.31
2023-06-19T00:35:30.901Z,23.31
2023-06-19T00:36:30.897Z,23.29
2023-06-19T00:37:30.872Z,23.26
2023-06-19T00:38:30.863Z,23.26
2023-06-19T00:39:30.866Z,23.26
2023-06-19T00:40:30.853Z,23.26
2023-06-19T00:41:30.835Z,23.26
2023-06-19T00:42:30.815Z,23.25
2023-06-19T00:43:30.822Z,23.23
2023-06-19T00:44:30.812Z,23.22
2023-06-19T00:45:30.834Z,23.22
2023-06-19T00:46:30.811Z,23.22
2023-06-19T00:47:30.820Z,23.22
2023-06-19T00:48:30.762Z,23.21
2023-06-19T00:49:30.752Z,23.18
2023-06-19T00:50:30.736Z,23.15
2023-06-19T00:51:30.725Z,23.14
2023-06-19T00:52:30.712Z,23.09
2023-06-19T00:53:30.711Z,23.06
2023-06-19T00:54:30.682Z,23.03
2023-06-19T00:55:30.684Z,23.03
2023-06-19T00:56:30.661Z,23.01
2023-06-19T00:57:30.664Z,23.00
2023-06-19T00:58:30.649Z,23.00
2023-06-19T00:59:30.668Z,22.99
2023-06-19T01:00:30.622Z,22.99
2023-06-19T01:01:30.662Z,22.97
2023-06-19T01:02:30.644Z,22.94
2023-06-19T01:03:30.680Z,22.93
2023-06-19T01:04:30.612Z,22.89
2023-06-19T01:05:30.570Z,22.86
2023-06-19T01:06:30.559Z,22.82
2023-06-19T01:07:30.565Z,22.79
2023-06-19T01:11:58.816Z,22.70
2023-06-19T01:12:59.807Z,22.69
2023-06-19T01:13:59.788Z,22.69
2023-06-19T01:14:59.781Z,22.64
2023-06-19T01:15:59.782Z,22.61
2023-06-19T01:16:59.806Z,22.57
2023-06-19T01:17:59.796Z,22.54
2023-06-19T01:18:59.755Z,22.56
2023-06-19T01:19:59.726Z,22.54
2023-06-19T01:20:59.729Z,22.52
2023-06-19T01:21:59.705Z,22.51
2023-06-19T01:22:59.704Z,22.49
2023-06-19T01:23:59.695Z,22.46
2023-06-19T01:24:59.690Z,22.48
2023-06-19T01:25:59.672Z,22.44
2023-06-19T01:26:59.653Z,22.42
2023-06-19T01:27:59.656Z,22.42
2023-06-19T01:28:59.632Z,22.44
2023-06-19T01:29:59.628Z,22.42
2023-06-19T01:30:59.637Z,22.41
2023-06-19T01:31:59.618Z,22.39
2023-06-19T01:32:59.635Z,22.36
2023-06-19T01:33:59.577Z,22.31
2023-06-19T01:34:59.589Z,22.29
2023-06-19T01:35:59.553Z,22.26
2023-06-19T01:36:59.545Z,22.23
2023-06-19T01:37:59.539Z,22.20
2023-06-19T01:38:59.566Z,22.19
2023-06-19T01:39:59.524Z,22.19
2023-06-19T01:40:59.503Z,22.20
2023-06-19T01:41:59.484Z,22.21
2023-06-19T01:42:59.487Z,22.24
2023-06-19T01:43:59.477Z,22.24
2023-06-19T01:44:59.471Z,22.29
2023-06-19T01:45:59.462Z,22.29
2023-06-19T01:46:59.435Z,22.31
2023-06-19T01:47:59.460Z,22.33
2023-06-19T01:48:59.421Z,22.31
2023-06-19T01:49:59.408Z,22.31
2023-06-19T01:50:59.391Z,22.30
2023-06-19T01:51:59.373Z,22.29
2023-06-19T01:52:59.369Z,22.26
2023-06-19T01:53:59.362Z,22.24
2023-06-19T01:54:59.357Z,22.24
2023-06-19T01:55:59.334Z,22.24
2023-06-19T01:56:59.358Z,22.23
2023-06-19T01:57:59.327Z,22.20
2023-06-19T01:58:59.314Z,22.19
2023-06-19T01:59:59.290Z,22.15
2023-06-19T02:00:59.289Z,22.14
2023-06-19T02:01:59.264Z,22.12
2023-06-19T02:02:59.336Z,22.12
2023-06-19T02:03:59.288Z,22.11
2023-06-19T02:04:59.249Z,22.08
2023-06-19T02:05:59.221Z,22.05
2023-06-19T02:06:59.220Z,22.02
2023-06-19T02:07:59.213Z,21.99
2023-06-19T02:08:59.200Z,21.96
2023-06-19T02:09:59.173Z,21.96
2023-06-19T02:10:59.172Z,21.96
2023-06-19T02:11:59.164Z,21.96
2023-06-19T02:12:59.192Z,21.94
2023-06-19T02:13:59.142Z,21.94
2023-06-19T02:14:59.136Z,21.93
2023-06-19T02:15:59.134Z,21.94
2023-06-19T02:16:59.121Z,21.94
2023-06-19T02:17:59.128Z,21.94
2023-06-19T02:18:59.096Z,21.91
2023-06-19T02:19:59.064Z,21.89
2023-06-19T02:20:59.058Z,21.83
2023-06-19T02:21:59.073Z,21.77
2023-06-19T02:22:59.033Z,21.77
2023-06-19T02:23:59.040Z,21.77
2023-06-19T02:24:59.013Z,21.77
2023-06-19T02:25:59.012Z,21.75
2023-06-19T02:26:59.014Z,21.77
2023-06-19T02:27:58.977Z,21.79
2023-06-19T02:28:58.981Z,21.79
2023-06-19T02:29:58.953Z,21.81
2023-06-19T02:30:58.963Z,21.81
2023-06-19T02:31:58.932Z,21.81
2023-06-19T02:32:58.981Z,21.81
2023-06-19T02:33:58.912Z,21.81
2023-06-19T02:34:58.904Z,21.81
2023-06-19T02:35:58.898Z,21.77
2023-06-19T02:36:58.891Z,21.74
2023-06-19T02:37:58.892Z,21.71
2023-06-19T02:38:58.861Z,21.70
2023-06-19T02:39:58.851Z,21.70
2023-06-19T02:40:58.870Z,21.68
2023-06-19T02:41:58.816Z,21.67
2023-06-19T02:42:58.815Z,21.67
2023-06-19T02:43:58.796Z,21.64
2023-06-19T02:44:58.803Z,21.64
2023-06-19T02:45:58.815Z,21.63
2023-06-19T02:46:58.766Z,21.59
2023-06-19T02:47:58.821Z,21.55
2023-06-19T02:48:58.749Z,21.55
2023-06-19T02:49:58.745Z,21.55
2023-06-19T02:50:58.747Z,21.56
2023-06-19T02:51:58.723Z,21.56
2023-06-19T02:52:58.707Z,21.55
2023-06-19T02:53:58.710Z,21.53
2023-06-19T02:54:58.727Z,21.51
2023-06-19T02:55:58.671Z,21.49
2023-06-19T02:56:58.665Z,21.46
2023-06-19T02:57:58.654Z,21.43
2023-06-19T02:58:58.652Z,21.40
2023-06-19T02:59:58.626Z,21.37
2023-06-19T03:00:58.634Z,21.34
2023-06-19T03:01:58.601Z,21.34
2023-06-19T03:02:58.748Z,21.34
2023-06-19T03:03:58.594Z,21.36
2023-06-19T03:04:58.572Z,21.34
2023-06-19T03:05:58.568Z,21.36
2023-06-19T03:06:58.557Z,21.36
2023-06-19T03:07:58.542Z,21.36
2023-06-19T03:08:58.536Z,21.37
2023-06-19T03:09:58.503Z,21.37
2023-06-19T03:10:58.505Z,21.38
2023-06-19T03:11:58.484Z,21.40
2023-06-19T03:12:58.493Z,21.43
2023-06-19T03:13:58.475Z,21.42
2023-06-19T03:14:58.454Z,21.42
2023-06-19T03:15:58.473Z,21.42
2023-06-19T03:16:58.478Z,21.43
2023-06-19T03:17:58.497Z,21.43
2023-06-19T03:18:58.414Z,21.43
2023-06-19T03:19:58.399Z,21.46
2023-06-19T03:20:58.393Z,21.43
2023-06-19T03:21:58.396Z,21.48
2023-06-19T03:22:58.378Z,21.49
2023-06-19T03:23:58.371Z,21.52
2023-06-19T03:24:58.347Z,21.53
2023-06-19T03:25:58.332Z,21.56
2023-06-19T03:26:58.334Z,21.55
2023-06-19T03:27:58.308Z,21.56
2023-06-19T03:28:58.304Z,21.59
2023-06-19T03:29:58.288Z,21.58
2023-06-19T03:30:58.318Z,21.59
2023-06-19T03:31:58.279Z,21.59
2023-06-19T03:32:58.324Z,21.63
2023-06-19T03:33:58.243Z,21.64
2023-06-19T03:34:58.237Z,21.66
2023-06-19T03:35:58.239Z,21.68
2023-06-19T03:36:58.231Z,21.68
2023-06-19T03:37:58.207Z,21.70
2023-06-19T03:38:58.197Z,21.71
2023-06-19T03:39:58.174Z,21.73
2023-06-19T03:40:58.184Z,21.73
2023-06-19T03:41:58.165Z,21.71
2023-06-19T03:42:58.151Z,21.68
2023-06-19T03:43:58.136Z,21.67
2023-06-19T03:44:58.136Z,21.67
2023-06-19T03:45:58.132Z,21.64
2023-06-19T03:46:58.748Z,21.63
2023-06-19T03:47:58.122Z,21.61
2023-06-19T03:48:58.086Z,21.58
2023-06-19T03:50:04.678Z,21.56
2023-06-19T03:50:58.071Z,21.55
2023-06-19T03:51:58.046Z,21.55
2023-06-19T03:52:58.044Z,21.51
2023-06-19T03:53:58.052Z,21.46
2023-06-19T03:54:58.021Z,21.42
2023-06-19T03:55:57.998Z,21.43
2023-06-19T03:56:57.994Z,21.34
2023-06-19T03:57:57.992Z,21.31
2023-06-19T03:58:57.985Z,21.30
2023-06-19T03:59:57.964Z,21.28
2023-06-19T04:00:57.951Z,21.26
2023-06-19T04:01:58.000Z,21.21
2023-06-19T04:02:57.998Z,21.16
2023-06-19T04:03:57.959Z,21.15
2023-06-19T04:04:57.915Z,21.12
2023-06-19T04:05:57.894Z,21.11
2023-06-19T04:06:57.881Z,21.09
2023-06-19T04:07:57.865Z,21.09
2023-06-19T04:08:57.907Z,21.08
2023-06-19T04:09:57.862Z,21.11
2023-06-19T04:10:57.837Z,21.09
2023-06-19T04:11:57.837Z,21.06
2023-06-19T04:12:57.842Z,21.05
2023-06-19T04:13:57.811Z,21.05
2023-06-19T04:14:57.787Z,21.05
2023-06-19T04:15:57.844Z,21.09
2023-06-19T04:16:57.766Z,21.06
2023-06-19T04:17:57.786Z,21.11
2023-06-19T04:18:57.740Z,21.12
2023-06-19T04:19:57.736Z,21.13
2023-06-19T04:20:57.730Z,21.12
2023-06-19T04:21:57.714Z,21.09
2023-06-19T04:22:57.710Z,21.08
2023-06-19T04:23:57.726Z,21.11
2023-06-19T04:24:57.677Z,21.12
2023-06-19T04:25:57.673Z,21.12
2023-06-19T04:26:57.673Z,21.09
2023-06-19T04:27:57.664Z,21.09
2023-06-19T04:28:57.653Z,21.11
2023-06-19T04:29:57.625Z,21.15
2023-06-19T04:30:57.611Z,21.18
2023-06-19T04:31:57.612Z,21.26
2023-06-19T04:32:57.675Z,21.31
2023-06-19T04:33:57.585Z,21.36
2023-06-19T04:34:57.564Z,21.40
2023-06-19T04:35:57.567Z,21.48
2023-06-19T04:36:57.553Z,21.56
2023-06-19T04:37:57.543Z,21.67
2023-06-19T04:38:57.518Z,21.74
2023-06-19T04:39:57.560Z,21.83
2023-06-19T04:40:57.510Z,21.93
2023-06-19T04:41:57.510Z,22.01
2023-06-19T04:42:57.474Z,22.05
2023-06-19T04:43:57.470Z,22.06
2023-06-19T04:44:57.453Z,22.09
2023-06-19T04:45:57.500Z,22.11
2023-06-19T04:50:32.650Z,22.17
2023-06-19T04:55:45.577Z,22.30
2023-06-19T04:56:46.567Z,22.29
2023-06-19T04:57:46.578Z,22.27
2023-06-19T04:58:46.544Z,22.31
2023-06-19T04:59:46.548Z,22.33
2023-06-19T05:00:46.527Z,22.33
2023-06-19T05:01:46.558Z,22.35
2023-06-19T05:02:46.524Z,22.38
2023-06-19T05:03:46.490Z,22.38
2023-06-19T05:04:46.583Z,22.39
2023-06-19T05:05:46.489Z,22.39
2023-06-19T05:06:46.454Z,22.41
2023-06-19T05:07:46.462Z,22.42
2023-06-19T05:08:46.445Z,22.48
2023-06-19T05:09:46.456Z,22.52
2023-06-19T05:10:46.681Z,22.56
2023-06-19T05:11:46.410Z,22.60
2023-06-19T05:12:46.391Z,22.60
2023-06-19T05:13:46.434Z,22.61
2023-06-19T05:24:49.187Z,22.85
2023-06-19T05:25:50.208Z,22.84
2023-06-19T05:26:50.278Z,22.86
2023-06-19T05:27:50.192Z,22.85
2023-06-19T05:28:50.149Z,22.82
2023-06-19T05:29:50.142Z,22.86
2023-06-19T05:30:50.130Z,22.93
2023-06-19T05:31:50.118Z,22.94
2023-06-19T05:32:50.142Z,23.00
2023-06-19T05:33:50.102Z,23.03
2023-06-19T05:34:50.086Z,23.03
2023-06-19T05:35:50.077Z,23.00
2023-06-19T05:36:50.068Z,22.99
2023-06-19T05:37:50.061Z,23.01
2023-06-19T05:38:50.038Z,23.03
2023-06-19T05:39:50.034Z,23.03
2023-06-19T05:40:50.021Z,23.04
2023-06-19T05:41:50.034Z,23.01
2023-06-19T05:42:50.000Z,22.97
2023-06-19T05:43:49.989Z,22.96
2023-06-19T05:44:49.973Z,22.99
2023-06-19T05:45:50.049Z,23.11
2023-06-19T05:46:49.966Z,23.21
2023-06-19T05:47:49.979Z,23.21
2023-06-19T05:48:49.929Z,23.19
2023-06-19T05:49:49.924Z,23.18
2023-06-19T05:50:50.037Z,23.23
2023-06-19T05:51:49.921Z,23.23
2023-06-19T05:52:49.918Z,23.25
2023-06-19T05:53:49.880Z,23.23
2023-06-19T05:54:49.881Z,23.22
2023-06-19T05:55:49.868Z,23.26
2023-06-19T05:56:49.842Z,23.25
2023-06-19T05:57:49.850Z,23.25
2023-06-19T05:58:49.841Z,23.31
2023-06-19T05:59:49.822Z,23.29
2023-06-19T06:00:49.835Z,23.35
2023-06-19T06:01:49.836Z,23.34
2023-06-19T06:02:49.807Z,23.42
2023-06-19T06:03:49.772Z,23.41
2023-06-19T06:04:49.786Z,23.41
2023-06-19T06:05:49.839Z,23.37
2023-06-19T06:06:49.731Z,23.37
2023-06-19T06:07:49.723Z,23.32
2023-06-19T06:08:49.710Z,23.26
2023-06-19T06:09:49.713Z,23.25
2023-06-19T06:10:49.689Z,23.29
2023-06-19T06:11:49.681Z,23.35
2023-06-19T06:12:49.663Z,23.39
2023-06-19T06:13:49.729Z,23.41
2023-06-19T06:19:18.706Z,23.47
2023-06-19T06:20:19.683Z,23.50
2023-06-19T06:21:19.706Z,23.54
2023-06-19T06:22:19.783Z,23.67
2023-06-19T06:32:02.033Z,23.53
2023-06-19T06:33:03.099Z,23.57
2023-06-19T06:34:03.008Z,23.62
2023-06-19T06:35:03.041Z,23.75
2023-06-19T06:36:02.983Z,23.77
2023-06-19T06:37:06.493Z,23.77
2023-06-19T06:38:02.986Z,23.77
2023-06-19T06:39:02.957Z,23.84
2023-06-19T06:40:02.941Z,23.94
2023-06-19T06:41:02.938Z,23.89
2023-06-19T06:42:02.934Z,23.78
2023-06-19T06:43:02.930Z,23.74
2023-06-19T06:44:02.899Z,23.87
2023-06-19T06:48:36.373Z,23.92
2023-06-19T06:49:37.362Z,23.89
2023-06-19T06:50:37.351Z,23.92
2023-06-19T06:51:37.348Z,23.92
2023-06-19T06:52:37.332Z,23.94
2023-06-19T06:53:37.401Z,24.21
2023-06-19T06:54:37.298Z,24.51
2023-06-19T06:55:37.289Z,24.45
2023-06-19T06:56:37.285Z,24.46
2023-06-19T06:57:37.281Z,24.34
2023-06-19T06:58:37.255Z,24.30
2023-06-19T06:59:37.269Z,24.42
2023-06-19T07:00:37.245Z,24.36
2023-06-19T07:01:37.287Z,24.46
2023-06-19T07:02:37.307Z,24.51
2023-06-19T07:03:37.262Z,24.61
2023-06-19T07:04:37.195Z,24.79
2023-06-19T07:05:37.189Z,24.68
2023-06-19T07:06:37.179Z,24.52
2023-06-19T07:07:37.253Z,24.48
2023-06-19T07:08:37.151Z,24.60
2023-06-19T07:09:37.143Z,24.59
2023-06-19T07:10:37.141Z,24.46
2023-06-19T07:11:37.129Z,24.45
2023-06-19T07:12:37.107Z,24.55
2023-06-19T07:13:37.119Z,24.51
2023-06-19T07:14:37.101Z,24.49
2023-06-19T07:15:37.086Z,24.29
2023-06-19T07:16:37.099Z,24.15
2023-06-19T07:17:37.089Z,24.09
2023-06-19T07:18:37.046Z,24.12
2023-06-19T07:19:37.038Z,24.16
2023-06-19T07:20:37.033Z,24.09
2023-06-19T07:21:37.008Z,24.08
2023-06-19T07:22:37.011Z,24.06
2023-06-19T07:23:38.040Z,24.04
2023-06-19T07:24:37.011Z,24.09
2023-06-19T07:25:36.978Z,24.11
2023-06-19T07:26:36.952Z,24.05
2023-06-19T07:27:36.949Z,23.87
2023-06-19T07:28:36.932Z,23.87
2023-06-19T07:29:36.938Z,24.05
2023-06-19T07:30:36.934Z,24.23
2023-06-19T07:31:36.919Z,24.37
2023-06-19T07:32:37.060Z,24.45
2023-06-19T07:33:36.883Z,24.52
2023-06-19T07:34:36.891Z,24.49
2023-06-19T07:35:36.864Z,24.61
2023-06-19T07:36:36.855Z,24.55
2023-06-19T07:37:36.846Z,24.31
2023-06-19T07:38:36.846Z,24.26
2023-06-19T07:39:36.826Z,24.44
2023-06-19T07:40:36.798Z,24.64
2023-06-19T07:41:36.797Z,24.70
2023-06-19T07:42:36.791Z,24.64
2023-06-19T07:43:36.786Z,24.67
2023-06-19T07:44:36.763Z,24.56
2023-06-19T07:45:36.793Z,24.80
2023-06-19T07:46:36.855Z,25.02
2023-06-19T07:47:36.756Z,24.97
2023-06-19T07:48:36.724Z,24.93
2023-06-19T07:49:36.708Z,24.92
2023-06-19T07:50:36.691Z,25.01
2023-06-19T07:51:36.688Z,25.24
2023-06-19T07:52:36.678Z,25.39
2023-06-19T07:53:36.691Z,25.26
2023-06-19T07:54:36.650Z,25.12
2023-06-19T07:55:36.652Z,24.74
2023-06-19T07:56:36.647Z,24.51
2023-06-19T07:57:36.632Z,24.34
2023-06-19T07:58:36.649Z,24.21
2023-06-19T07:59:36.605Z,24.12
2023-06-19T08:00:36.593Z,24.44
2023-06-19T08:01:36.579Z,24.60
2023-06-19T08:02:36.683Z,24.53
2023-06-19T08:03:36.668Z,24.31
2023-06-19T08:04:36.599Z,24.44
2023-06-19T08:05:36.535Z,24.63
2023-06-19T08:06:36.522Z,24.68
2023-06-19T08:07:36.525Z,24.61
2023-06-19T08:08:36.506Z,24.59
2023-06-19T08:09:36.493Z,24.52
2023-06-19T08:10:36.482Z,24.71
2023-06-19T08:11:36.483Z,24.64
2023-06-19T08:12:36.464Z,24.48
2023-06-19T08:13:36.447Z,24.46
2023-06-19T08:14:36.434Z,24.53
2023-06-19T08:15:36.433Z,24.70
2023-06-19T08:16:36.441Z,24.64
2023-06-19T08:17:36.464Z,24.46
2023-06-19T08:18:36.388Z,24.42
2023-06-19T08:19:36.388Z,24.31
2023-06-19T08:20:36.382Z,24.33
2023-06-19T08:21:36.371Z,24.34
2023-06-19T08:22:36.348Z,24.37
2023-06-19T08:23:36.340Z,24.49
2023-06-19T08:24:36.366Z,24.34
2023-06-19T08:25:36.337Z,24.29
2023-06-19T08:26:36.314Z,24.33
2023-06-19T08:27:36.298Z,24.44
2023-06-19T08:28:36.307Z,24.49
2023-06-19T08:29:36.275Z,24.52
2023-06-19T08:30:36.285Z,24.51
2023-06-19T08:31:36.254Z,24.51
2023-06-19T08:32:36.310Z,24.55
2023-06-19T08:33:36.248Z,24.49
2023-06-19T08:34:36.211Z,24.46
2023-06-19T08:35:36.222Z,24.48
2023-06-19T08:36:36.230Z,24.55
2023-06-19T08:37:36.207Z,24.53
2023-06-19T08:38:36.167Z,24.51
2023-06-19T08:39:36.170Z,24.36
2023-06-19T08:40:36.160Z,24.84
2023-06-19T08:41:36.143Z,24.74
2023-06-19T08:42:36.129Z,24.71
2023-06-19T08:43:36.156Z,24.68
2023-06-19T08:44:38.255Z,24.60
2023-06-19T08:45:36.115Z,24.51
2023-06-19T08:46:36.130Z,24.41
2023-06-19T08:47:36.123Z,24.45
2023-06-19T08:48:36.064Z,24.51
2023-06-19T08:49:36.073Z,24.46
2023-06-19T08:50:36.061Z,24.45
2023-06-19T08:51:36.036Z,24.36
2023-06-19T08:52:36.019Z,24.33
2023-06-19T08:53:36.035Z,24.31
2023-06-19T08:54:36.021Z,24.23
2023-06-19T08:55:35.995Z,24.24
2023-06-19T08:56:36.047Z,24.37
2023-06-19T08:57:35.975Z,24.39
2023-06-19T08:58:35.969Z,24.33
2023-06-19T08:59:35.965Z,24.21
2023-06-19T09:00:35.956Z,24.27
2023-06-19T09:01:35.936Z,24.23
2023-06-19T09:02:35.956Z,24.19
2023-06-19T09:03:35.961Z,24.19
2023-06-19T09:04:35.901Z,24.24
2023-06-19T09:05:35.899Z,24.23
2023-06-19T09:06:35.917Z,24.19
2023-06-19T09:07:35.983Z,24.23
2023-06-19T09:08:35.867Z,24.21
2023-06-19T09:09:35.853Z,24.23
2023-06-19T09:10:35.835Z,24.23
2023-06-19T09:11:35.833Z,24.21
2023-06-19T09:12:35.821Z,24.30
2023-06-19T09:13:35.809Z,24.36
2023-06-19T09:14:35.798Z,24.36
2023-06-19T09:15:35.815Z,24.34
2023-06-19T09:16:35.813Z,24.41
2023-06-19T09:17:35.822Z,24.45
2023-06-19T09:18:35.763Z,24.41
2023-06-19T09:19:35.780Z,24.44
2023-06-19T09:20:35.757Z,24.49
2023-06-19T09:21:35.721Z,24.53
2023-06-19T09:22:35.718Z,24.67
2023-06-19T09:23:35.700Z,24.82
2023-06-19T09:24:35.758Z,24.77
2023-06-19T09:25:35.676Z,24.80
2023-06-19T09:26:35.668Z,24.86
2023-06-19T09:27:35.690Z,24.89
2023-06-19T09:28:35.633Z,24.83
2023-06-19T09:29:35.632Z,24.79
2023-06-19T09:30:35.628Z,24.75
2023-06-19T09:31:35.743Z,24.82
2023-06-19T09:32:35.622Z,24.90
2023-06-19T09:33:35.644Z,25.17
2023-06-19T09:34:37.491Z,25.24
2023-06-19T09:35:35.571Z,25.24
2023-06-19T09:36:35.568Z,25.22
2023-06-19T09:37:35.612Z,25.23
2023-06-19T09:38:35.526Z,25.30
2023-06-19T09:39:35.520Z,25.34
2023-06-19T09:40:35.546Z,25.36
2023-06-19T09:41:35.528Z,25.44
2023-06-19T09:42:35.492Z,25.35
2023-06-19T09:43:35.483Z,25.26
2023-06-19T09:44:41.651Z,25.19
2023-06-19T09:45:35.471Z,24.99
2023-06-19T09:46:35.494Z,24.92
2023-06-19T09:47:35.578Z,24.86
2023-06-19T09:48:35.429Z,24.75
2023-06-19T09:49:35.408Z,24.67
2023-06-19T09:50:35.415Z,24.52
2023-06-19T09:51:35.384Z,24.46
2023-06-19T09:52:35.369Z,24.48
2023-06-19T09:53:35.369Z,24.49
2023-06-19T09:54:35.358Z,24.37
2023-06-19T09:55:35.353Z,24.24
2023-06-19T09:56:35.348Z,24.16
2023-06-19T09:57:35.330Z,24.08
2023-06-19T09:58:35.308Z,23.99
2023-06-19T09:59:35.307Z,23.99
2023-06-19T10:00:35.305Z,24.05
2023-06-19T10:01:35.283Z,24.12
2023-06-19T10:02:35.310Z,24.15
2023-06-19T10:03:35.303Z,24.14
2023-06-19T10:04:35.260Z,24.08
2023-06-19T10:05:35.239Z,24.09
2023-06-19T10:06:35.226Z,24.11
2023-06-19T10:07:35.216Z,24.19
2023-06-19T10:08:35.220Z,24.31
2023-06-19T10:09:35.205Z,24.36
2023-06-19T10:10:35.184Z,24.39
2023-06-19T10:11:35.180Z,24.45
2023-06-19T10:12:35.157Z,24.49
2023-06-19T10:13:35.162Z,24.60
2023-06-19T10:14:35.155Z,24.63
2023-06-19T10:15:35.126Z,24.59
2023-06-19T10:16:35.165Z,24.60
2023-06-19T10:17:35.126Z,24.66
2023-06-19T10:18:35.112Z,24.68
2023-06-19T10:19:35.082Z,24.70
2023-06-19T10:20:35.076Z,24.70
2023-06-19T10:21:35.061Z,24.74
2023-06-19T10:22:35.062Z,24.79
2023-06-19T10:23:35.060Z,24.87
2023-06-19T10:24:35.048Z,24.98
2023-06-19T10:25:35.024Z,25.04
2023-06-19T10:26:35.024Z,25.14
2023-06-19T10:27:35.007Z,25.14
2023-06-19T10:28:34.992Z,25.11
2023-06-19T10:29:34.986Z,25.09
2023-06-19T10:30:34.988Z,25.11
2023-06-19T10:31:34.962Z,25.09
2023-06-19T10:32:34.964Z,25.07
2023-06-19T10:33:34.934Z,25.02
2023-06-19T10:34:34.919Z,25.04
2023-06-19T10:35:34.912Z,25.09
2023-06-19T10:36:34.896Z,25.20
2023-06-19T10:37:34.940Z,25.34
2023-06-19T10:38:34.928Z,25.36
2023-06-19T10:39:34.875Z,25.24
2023-06-19T10:40:34.853Z,25.17
2023-06-19T10:41:34.854Z,25.12
2023-06-19T10:42:34.839Z,25.20
2023-06-19T10:43:34.831Z,25.23
2023-06-19T10:44:34.813Z,25.26
2023-06-19T10:45:34.880Z,25.17
2023-06-19T10:46:34.820Z,25.14
2023-06-19T10:47:34.787Z,25.16
2023-06-19T10:48:34.771Z,25.16
2023-06-19T10:49:34.780Z,25.20
2023-06-19T10:50:34.751Z,25.24
2023-06-19T10:51:34.747Z,25.35
2023-06-19T10:52:34.720Z,25.36
2023-06-19T10:53:34.739Z,25.36
2023-06-19T10:54:34.706Z,25.38
2023-06-19T10:55:36.654Z,25.39
2023-06-19T10:56:34.858Z,25.30
2023-06-19T10:57:34.674Z,25.23
2023-06-19T10:58:34.660Z,25.12
2023-06-19T10:59:34.650Z,25.08
2023-06-19T11:00:34.656Z,24.98
2023-06-19T11:01:34.627Z,24.98
2023-06-19T11:02:34.652Z,24.99
2023-06-19T11:03:34.678Z,25.05
2023-06-19T11:04:34.588Z,25.09
2023-06-19T11:05:34.593Z,25.12
2023-06-19T11:06:35.542Z,25.20
2023-06-19T11:07:34.564Z,25.26
2023-06-19T11:08:34.549Z,25.22
2023-06-19T11:09:34.541Z,25.19
2023-06-19T11:10:34.537Z,25.30
2023-06-19T11:11:34.516Z,25.54
2023-06-19T11:12:34.568Z,25.72
2023-06-19T11:13:34.508Z,25.94
2023-06-19T11:14:34.494Z,26.13
2023-06-19T11:15:34.527Z,26.11
2023-06-19T11:16:34.532Z,26.16
2023-06-19T11:17:34.513Z,26.24
2023-06-19T11:18:34.439Z,26.35
2023-06-19T11:19:34.481Z,26.42
2023-06-19T11:20:34.424Z,26.39
2023-06-19T11:21:34.413Z,26.42
2023-06-19T11:22:34.397Z,26.35
2023-06-19T11:23:34.383Z,26.32
2023-06-19T11:24:34.403Z,26.03
2023-06-19T11:25:34.364Z,25.85
2023-06-19T11:26:34.360Z,25.63
2023-06-19T11:27:34.351Z,25.39
2023-06-19T11:28:34.410Z,25.34
2023-06-19T11:29:34.331Z,25.23
2023-06-19T11:30:34.385Z,25.16
2023-06-19T11:31:34.305Z,25.07
2023-06-19T11:32:34.297Z,25.05
2023-06-19T11:33:34.290Z,25.14
2023-06-19T11:34:34.275Z,25.29
2023-06-19T11:35:34.255Z,25.42
2023-06-19T11:36:34.237Z,25.63
2023-06-19T11:37:34.276Z,25.74
2023-06-19T11:38:34.231Z,25.90
2023-06-19T11:39:34.211Z,25.98
2023-06-19T11:40:34.197Z,26.06
2023-06-19T11:41:34.193Z,26.06
2023-06-19T11:42:34.195Z,26.03
2023-06-19T11:43:34.207Z,26.08
2023-06-19T11:44:34.154Z,26.24
2023-06-19T11:45:34.169Z,26.28
2023-06-19T11:46:34.197Z,26.32
2023-06-19T11:47:34.171Z,26.28
2023-06-19T11:48:34.267Z,26.35
2023-06-19T11:49:34.112Z,26.46
2023-06-19T11:50:34.092Z,26.51
2023-06-19T11:51:34.105Z,26.36
2023-06-19T11:52:34.072Z,26.13
2023-06-19T11:53:34.074Z,26.01
2023-06-19T11:54:34.046Z,25.97
2023-06-19T11:55:34.065Z,26.06
2023-06-19T11:56:34.036Z,26.12
2023-06-19T11:57:34.048Z,26.29
2023-06-19T11:58:34.002Z,26.47
2023-06-19T11:59:33.999Z,26.65
2023-06-19T12:00:33.990Z,26.75
2023-06-19T12:01:33.992Z,26.84
2023-06-19T12:02:34.276Z,26.78
2023-06-19T12:03:34.088Z,26.79
2023-06-19T12:04:34.121Z,26.79
2023-06-19T12:05:33.930Z,26.73
2023-06-19T12:06:33.926Z,26.75
2023-06-19T12:07:33.915Z,26.71
2023-06-19T12:08:33.892Z,26.78
2023-06-19T12:09:33.884Z,26.94
2023-06-19T12:10:33.868Z,27.03
2023-06-19T12:11:33.871Z,27.08
2023-06-19T12:12:33.851Z,27.20
2023-06-19T12:13:33.843Z,27.33
2023-06-19T12:14:33.854Z,27.38
2023-06-19T12:15:35.997Z,27.42
2023-06-19T12:16:33.827Z,27.48
2023-06-19T12:17:33.841Z,27.50
2023-06-19T12:18:33.783Z,27.58
2023-06-19T12:19:33.789Z,27.59
2023-06-19T12:20:33.773Z,27.63
2023-06-19T12:21:38.443Z,27.76
2023-06-19T12:22:33.752Z,27.77
2023-06-19T12:23:33.732Z,27.80
2023-06-19T12:24:33.729Z,27.86
2023-06-19T12:25:33.738Z,27.69
2023-06-19T12:26:33.699Z,27.38
2023-06-19T12:27:34.747Z,27.20
2023-06-19T12:28:33.688Z,27.16
2023-06-19T12:29:33.692Z,27.18
2023-06-19T12:30:33.670Z,27.24
2023-06-19T12:31:33.644Z,27.30
2023-06-19T12:32:33.674Z,27.25
2023-06-19T12:33:33.629Z,27.24
2023-06-19T12:34:33.625Z,27.16
2023-06-19T12:35:33.647Z,26.96
2023-06-19T12:36:33.585Z,26.90
2023-06-19T12:37:33.576Z,26.90
2023-06-19T12:38:33.562Z,26.84
2023-06-19T12:39:33.565Z,26.90
2023-06-19T12:40:33.559Z,26.91
2023-06-19T12:41:33.534Z,26.96
2023-06-19T12:42:33.515Z,26.88
2023-06-19T12:43:33.524Z,26.90
2023-06-19T12:44:33.525Z,26.93
2023-06-19T12:45:33.502Z,26.81
2023-06-19T12:46:33.518Z,26.83
2023-06-19T12:47:33.517Z,26.83
2023-06-19T12:48:33.467Z,26.81
2023-06-19T12:49:33.436Z,26.86
2023-06-19T12:50:33.439Z,26.87
2023-06-19T12:51:33.429Z,26.87
2023-06-19T12:52:33.423Z,26.91
2023-06-19T12:53:33.404Z,27.01
2023-06-19T12:54:33.399Z,26.93
2023-06-19T12:55:33.388Z,26.78
2023-06-19T12:56:33.440Z,26.76
2023-06-19T12:57:33.359Z,26.78
2023-06-19T12:58:33.415Z,26.79
2023-06-19T12:59:33.354Z,26.87
2023-06-19T13:00:33.332Z,26.86
2023-06-19T13:01:33.330Z,26.78
2023-06-19T13:02:33.417Z,26.87
2023-06-19T13:03:33.395Z,26.93
2023-06-19T13:04:33.283Z,26.83
2023-06-19T13:05:33.302Z,26.86
2023-06-19T13:06:33.261Z,26.84
2023-06-19T13:07:33.258Z,26.79
2023-06-19T13:08:33.242Z,26.87
2023-06-19T13:09:33.226Z,26.94
2023-06-19T13:10:33.221Z,27.06
2023-06-19T13:11:33.205Z,27.08
2023-06-19T13:12:33.210Z,27.12
2023-06-19T13:13:33.181Z,27.16
2023-06-19T13:14:33.231Z,27.21
2023-06-19T13:15:33.164Z,27.21
2023-06-19T13:16:45.477Z,27.25
2023-06-19T13:17:33.172Z,27.25
2023-06-19T13:18:33.135Z,27.21
2023-06-19T13:19:33.122Z,27.27
2023-06-19T13:20:33.124Z,27.28
2023-06-19T13:21:33.112Z,27.30
2023-06-19T13:22:33.092Z,27.33
2023-06-19T13:23:33.077Z,27.39
2023-06-19T13:24:33.088Z,27.48
2023-06-19T13:25:33.054Z,27.53
2023-06-19T13:26:33.060Z,27.61
2023-06-19T13:27:33.036Z,27.66
2023-06-19T13:28:33.026Z,27.68
2023-06-19T13:29:33.007Z,27.61
2023-06-19T13:30:33.014Z,27.49